Lugo, Spain
Current Conditions -  °F | °C
As of 3:00 AM on Sunday 23 Nov 2014 (Local Time) from LEST Reporting Station
Light Rain Light Rain  
Wind Chill: 11°   Ceiling: 200
Heat Index: 11°   Visibility: 4mi
Dew Point: 11°   Wind: 6mph
Humidity: 100%   Direction: 350°N
Pressure: 29.88"   Gusts: NA
Location:  43.01°N, 7.56°W
Report Text: LEST 230200Z 35005KT 7000 -RA BKN002 BKN040 11/11 Q1012 TEMPO 3000 RA BKN005
Loading
Personal Weather Stations






























Interactive Weather Map New forecast layout! Learn more

10-Day Weather Forecast

Advertisements
Track Severe Weather on mobile